Time;durP1;ratioP1;P1;durP2;ratioP2;P2;SDS_P1;SDS_P2;PMS_P1;PMS_P2;Temp;Humidity;BMP_temperature;BMP_pressure;BME280_temperature;BME280_humidity;BME280_pressure;Samples;Min_cycle;Max_cycle;Signal;HPM_P1;HPM_P2
2023/01/22 00:00:04;;;;;;;74.80;31.50;;;;;;;7.55;100.00;101206.17;108044;1257;62463;-65
2023/01/22 00:02:39;;;;;;;108.50;35.00;;;;;;;7.60;100.00;101211.91;108141;1254;61349;-64
2023/01/22 00:05:06;;;;;;;107.30;32.50;;;;;;;7.71;100.00;101215.66;108093;1254;73985;-63
2023/01/22 00:07:33;;;;;;;101.80;32.80;;;;;;;7.92;100.00;101223.36;108110;1254;70447;-63
2023/01/22 00:10:00;;;;;;;95.10;34.60;;;;;;;8.03;100.00;101218.03;108085;1254;73591;-65
2023/01/22 00:12:28;;;;;;;140.50;34.30;;;;;;;7.97;100.00;101219.30;108046;1254;61263;-63
2023/01/22 00:14:55;;;;;;;118.60;37.10;;;;;;;8.08;100.00;101217.11;108059;1254;59751;-64
2023/01/22 00:17:21;;;;;;;105.00;35.20;;;;;;;7.92;100.00;101219.00;108060;1254;73932;-64
2023/01/22 00:19:48;;;;;;;94.10;31.10;;;;;;;7.94;100.00;101221.23;108076;1254;71476;-64
2023/01/22 00:22:16;;;;;;;93.60;32.60;;;;;;;7.75;100.00;101222.27;108103;1254;73251;-64
2023/01/22 00:24:43;;;;;;;104.10;34.70;;;;;;;7.75;100.00;101218.79;108062;1254;62204;-63
2023/01/22 00:27:09;;;;;;;86.70;31.50;;;;;;;7.79;100.00;101219.27;108048;1254;59721;-64
2023/01/22 00:29:36;;;;;;;104.30;36.40;;;;;;;7.85;100.00;101221.14;108048;1254;74249;-64
2023/01/22 00:32:03;;;;;;;83.60;33.00;;;;;;;7.80;100.00;101227.48;108085;1254;71413;-64
2023/01/22 00:34:30;;;;;;;93.00;33.80;;;;;;;7.61;100.00;101232.17;108097;1254;73625;-64
2023/01/22 00:36:57;;;;;;;98.90;34.80;;;;;;;7.63;100.00;101234.44;108059;1254;62059;-64
2023/01/22 00:39:24;;;;;;;86.50;32.60;;;;;;;7.62;100.00;101237.94;108063;1254;61481;-64
2023/01/22 00:41:51;;;;;;;84.80;33.40;;;;;;;7.53;100.00;101239.40;107937;1254;74237;-64
2023/01/22 00:44:18;;;;;;;120.20;37.90;;;;;;;7.66;100.00;101246.30;108069;1254;70541;-62
2023/01/22 00:46:45;;;;;;;86.10;31.70;;;;;;;7.84;100.00;101246.00;107936;1260;71884;-64
2023/01/22 00:49:12;;;;;;;98.50;34.50;;;;;;;7.56;100.00;101250.55;108139;1254;61263;-63
2023/01/22 00:51:38;;;;;;;97.50;34.70;;;;;;;7.66;100.00;101250.15;108054;1254;61128;-63
2023/01/22 00:54:07;;;;;;;84.10;32.30;;;;;;;7.73;100.00;101252.54;108047;1254;74119;-64
2023/01/22 00:56:36;;;;;;;118.70;35.10;;;;;;;7.86;100.00;101250.33;108021;1254;71380;-63
2023/01/22 00:59:09;;;;;;;104.70;35.90;;;;;;;7.96;100.00;101255.52;108023;1254;73693;-62
2023/01/22 01:01:37;;;;;;;117.60;35.60;;;;;;;8.09;100.00;101258.38;107852;1257;61434;-64
2023/01/22 01:04:04;;;;;;;120.80;38.20;;;;;;;7.95;100.00;101262.52;108013;1257;61291;-64
2023/01/22 01:06:32;;;;;;;107.60;36.10;;;;;;;8.04;100.00;101260.69;108041;1257;74169;-65
2023/01/22 01:08:58;;;;;;;97.00;34.80;;;;;;;8.02;100.00;101266.13;108029;1257;71453;-64
2023/01/22 01:11:25;;;;;;;90.70;32.60;;;;;;;8.24;100.00;101262.42;107956;1257;73490;-65
2023/01/22 01:13:52;;;;;;;95.30;33.70;;;;;;;8.33;100.00;101266.04;107919;1257;62288;-62
2023/01/22 01:16:25;;;;;;;103.50;36.40;;;;;;;8.40;100.00;101269.11;108048;1256;61027;-64
2023/01/22 01:18:52;;;;;;;83.60;31.40;;;;;;;8.49;100.00;101268.70;108082;1257;74416;-64
2023/01/22 01:21:19;;;;;;;97.30;35.20;;;;;;;8.43;100.00;101269.80;108034;1259;69878;-64
2023/01/22 01:23:45;;;;;;;92.90;32.70;;;;;;;8.43;100.00;101273.83;108004;1257;73951;-63
2023/01/22 01:26:13;;;;;;;85.60;31.40;;;;;;;8.33;100.00;101275.66;107859;1257;60231;-63
2023/01/22 01:28:40;;;;;;;101.10;33.90;;;;;;;8.41;100.00;101280.31;108015;1257;60541;-62
2023/01/22 01:31:09;;;;;;;80.40;30.70;;;;;;;8.26;100.00;101282.70;108018;1257;74085;-58
2023/01/22 01:33:36;;;;;;;97.90;36.40;;;;;;;8.13;100.00;101285.10;108008;1257;70798;-59
2023/01/22 01:36:05;;;;;;;119.70;35.80;;;;;;;8.15;100.00;101284.73;107977;1257;72264;-62
2023/01/22 01:38:33;;;;;;;95.70;32.20;;;;;;;8.05;100.00;101280.61;107983;1257;62198;-64
2023/01/22 01:41:00;;;;;;;87.40;34.00;;;;;;;8.23;100.00;101287.46;107879;1256;61569;-63
2023/01/22 01:43:27;;;;;;;110.70;34.10;;;;;;;8.16;100.00;101287.52;107993;1257;74128;-65
2023/01/22 01:45:55;;;;;;;103.30;35.10;;;;;;;8.36;100.00;101282.30;107993;1256;71400;-63
2023/01/22 01:48:26;;;;;;;125.80;37.90;;;;;;;8.32;100.00;101284.76;108058;1259;73577;-63
2023/01/22 01:50:56;;;;;;;78.10;30.70;;;;;;;8.43;100.00;101287.30;108052;1254;62066;-61
2023/01/22 01:53:23;;;;;;;96.80;36.10;;;;;;;8.54;100.00;101283.52;108081;1254;60909;-63
2023/01/22 01:55:50;;;;;;;89.00;31.50;;;;;;;8.43;100.00;101283.80;107947;1254;74925;-63
2023/01/22 01:58:20;;;;;;;93.00;32.80;;;;;;;8.44;100.00;101282.91;107902;1254;71560;-62
2023/01/22 02:00:50;;;;;;;80.40;31.60;;;;;;;8.45;100.00;101285.36;107876;1257;73675;-63
2023/01/22 02:03:17;;;;;;;87.60;29.80;;;;;;;8.55;100.00;101287.70;107932;1260;61000;-65
2023/01/22 02:05:44;;;;;;;86.10;30.40;;;;;;;8.61;100.00;101291.85;107887;1257;60570;-64
2023/01/22 02:08:11;;;;;;;98.10;33.90;;;;;;;8.76;100.00;101293.45;107942;1257;74933;-62
2023/01/22 02:10:38;;;;;;;92.50;31.40;;;;;;;8.62;100.00;101295.52;107785;1257;71702;-64
2023/01/22 02:13:08;;;;;;;122.30;35.60;;;;;;;8.49;100.00;101297.04;107744;1260;73531;-64
2023/01/22 02:15:36;;;;;;;77.10;31.50;;;;;;;8.36;100.00;101298.73;107950;1256;60740;-62
2023/01/22 02:18:03;;;;;;;87.20;30.50;;;;;;;8.35;100.00;101297.86;107914;1256;61292;-64
2023/01/22 02:20:35;;;;;;;99.20;31.40;;;;;;;8.39;100.00;101303.08;108003;1257;74886;-64
2023/01/22 02:23:02;;;;;;;72.70;30.20;;;;;;;8.67;100.00;101305.98;107996;1256;70216;-65
2023/01/22 02:25:32;;;;;;;78.90;29.50;;;;;;;8.64;100.00;101306.53;107897;1257;73966;-63
2023/01/22 02:27:59;;;;;;;82.20;30.30;;;;;;;8.65;100.00;101307.92;107925;1257;61766;-64
2023/01/22 02:30:29;;;;;;;82.60;28.90;;;;;;;8.58;100.00;101307.29;107997;1255;61366;-67
2023/01/22 02:32:56;;;;;;;108.90;35.10;;;;;;;8.60;100.00;101310.25;108021;1258;73231;-63
2023/01/22 02:35:23;;;;;;;72.30;27.60;;;;;;;8.47;100.00;101309.48;107982;1257;71153;-63
2023/01/22 02:37:50;;;;;;;106.80;34.90;;;;;;;8.64;100.00;101314.06;107877;1257;73516;-64
2023/01/22 02:40:18;;;;;;;83.60;30.80;;;;;;;8.39;100.00;101312.87;107901;1256;61445;-62
2023/01/22 02:42:45;;;;;;;92.60;32.40;;;;;;;8.12;100.00;101312.56;108042;1259;60338;-63
2023/01/22 02:45:11;;;;;;;74.90;29.10;;;;;;;8.19;100.00;101316.19;107885;1255;74938;-64
2023/01/22 02:47:38;;;;;;;74.00;28.20;;;;;;;8.10;100.00;101323.27;107913;1259;70409;-62
2023/01/22 02:50:05;;;;;;;82.40;30.70;;;;;;;8.32;100.00;101323.27;107933;1257;72759;-64
2023/01/22 02:52:32;;;;;;;80.70;30.30;;;;;;;8.47;100.00;101326.63;107926;1255;61665;-64
2023/01/22 02:54:59;;;;;;;68.70;27.40;;;;;;;8.42;100.00;101323.35;107913;1253;60560;-64
2023/01/22 02:57:29;;;;;;;86.30;33.80;;;;;;;8.45;100.00;101327.18;107959;1260;73059;-64
2023/01/22 02:59:56;;;;;;;84.30;28.70;;;;;;;8.24;100.00;101332.77;108005;1254;70085;-64
2023/01/22 03:02:23;;;;;;;82.00;31.90;;;;;;;8.19;100.00;101330.70;107937;1257;73596;-63
2023/01/22 03:04:51;;;;;;;82.80;30.70;;;;;;;8.21;100.00;101332.63;108043;1257;62009;-64
2023/01/22 03:07:18;;;;;;;84.30;31.80;;;;;;;8.51;100.00;101331.52;107947;1256;61217;-63
2023/01/22 03:09:50;;;;;;;75.80;30.20;;;;;;;8.41;100.00;101333.34;108012;1258;73075;-63
2023/01/22 03:12:16;;;;;;;83.80;32.40;;;;;;;8.70;100.00;101330.81;107922;1257;69866;-62
2023/01/22 03:23:00;;;;;;;88.20;33.10;;;;;;;8.84;100.00;101340.98;108015;1257;74955;-65
2023/01/22 03:25:26;;;;;;;116.00;50.80;;;;;;;8.88;100.00;101338.49;108004;1256;70558;-61
2023/01/22 03:28:15;;;;;;;85.00;34.90;;;;;;;8.71;100.00;101339.55;107922;1259;73504;-65
2023/01/22 03:30:44;;;;;;;83.00;32.40;;;;;;;8.66;100.00;101343.80;108012;1257;61388;-66
2023/01/22 03:33:11;;;;;;;85.80;35.00;;;;;;;8.56;100.00;101344.60;107887;1260;61439;-64
2023/01/22 03:35:37;;;;;;;74.10;29.70;;;;;;;8.48;100.00;101348.15;108014;1255;74427;-62
2023/01/22 03:38:11;;;;;;;81.50;31.80;;;;;;;8.87;100.00;101344.81;107965;1257;70179;-65
2023/01/22 03:40:38;;;;;;;73.00;28.80;;;;;;;8.94;100.00;101348.95;107907;1256;73461;-63
2023/01/22 03:43:04;;;;;;;64.50;26.40;;;;;;;8.90;100.00;101349.34;107949;1257;61154;-62
2023/01/22 03:45:33;;;;;;;71.30;28.70;;;;;;;8.88;100.00;101356.36;108031;1259;61068;-63
2023/01/22 03:48:01;;;;;;;62.30;27.00;;;;;;;9.02;100.00;101361.47;107996;1254;73095;-65
2023/01/22 03:50:30;;;;;;;68.00;27.80;;;;;;;9.01;100.00;101366.55;108099;1259;70835;-64
2023/01/22 03:52:57;;;;;;;70.20;28.10;;;;;;;9.07;100.00;101366.50;108075;1254;72711;-65
2023/01/22 03:55:25;;;;;;;69.00;26.10;;;;;;;8.98;100.00;101367.29;108038;1254;60876;-64
2023/01/22 03:57:53;;;;;;;70.00;28.30;;;;;;;8.93;100.00;101364.19;108162;1254;61346;-65
2023/01/22 04:00:20;;;;;;;70.60;27.60;;;;;;;9.22;100.00;101369.31;108020;1254;74857;-62
2023/01/22 04:02:52;;;;;;;59.30;26.70;;;;;;;9.28;100.00;101368.19;108136;1254;68299;-63
2023/01/22 04:05:20;;;;;;;67.80;27.80;;;;;;;9.20;100.00;101362.67;108025;1254;74099;-64
2023/01/22 04:07:48;;;;;;;64.30;27.00;;;;;;;9.15;100.00;101364.31;108103;1254;62125;-64
2023/01/22 04:10:16;;;;;;;56.90;23.30;;;;;;;9.27;100.00;101366.98;107953;1254;60192;-64
2023/01/22 04:12:47;;;;;;;62.80;26.10;;;;;;;9.36;100.00;101372.66;107910;1254;74814;-64
2023/01/22 04:15:16;;;;;;;59.30;25.90;;;;;;;9.18;100.00;101376.35;108105;1254;71298;-64
2023/01/22 04:17:45;;;;;;;63.40;27.50;;;;;;;9.09;100.00;101383.99;108230;1258;73198;-63
2023/01/22 04:20:48;;;;;;;72.50;29.70;;;;;;;9.20;100.00;101385.28;107582;1260;62243;-60
2023/01/22 04:23:21;;;;;;;65.30;26.80;;;;;;;9.29;100.00;101386.57;108030;1254;61327;-63
2023/01/22 04:25:49;;;;;;;72.10;31.20;;;;;;;9.49;100.00;101389.14;108069;1255;74832;-62
2023/01/22 04:28:16;;;;;;;70.90;30.00;;;;;;;9.53;100.00;101391.02;108119;1254;71111;-62
2023/01/22 04:30:46;;;;;;;62.50;26.80;;;;;;;9.40;100.00;101394.69;108049;1254;73099;-63
2023/01/22 04:33:42;;;;;;;66.40;29.20;;;;;;;9.47;100.00;101402.49;107958;1254;62256;-62
2023/01/22 04:36:14;;;;;;;66.60;27.70;;;;;;;9.22;100.00;101403.48;108106;1253;61655;-62
2023/01/22 04:38:41;;;;;;;58.70;26.40;;;;;;;8.80;100.00;101412.83;108065;1255;73812;-62
2023/01/22 04:41:08;;;;;;;67.70;29.30;;;;;;;8.95;100.00;101421.10;108054;1255;71026;-63
2023/01/22 04:43:36;;;;;;;64.00;27.40;;;;;;;8.79;100.00;101420.89;108005;1254;73792;-65
2023/01/22 04:46:03;;;;;;;63.30;27.90;;;;;;;8.98;100.00;101418.25;107935;1254;62343;-62
2023/01/22 04:48:31;;;;;;;63.40;29.60;;;;;;;8.84;100.00;101418.23;108100;1254;61535;-64
2023/01/22 04:50:59;;;;;;;58.40;27.00;;;;;;;8.87;100.00;101418.73;108032;1258;74694;-63
2023/01/22 04:53:28;;;;;;;66.10;29.30;;;;;;;8.63;100.00;101421.55;108052;1254;70430;-64
2023/01/22 04:55:55;;;;;;;51.70;25.10;;;;;;;8.69;100.00;101421.34;108026;1254;71855;-65
2023/01/22 04:58:22;;;;;;;56.30;25.80;;;;;;;8.85;100.00;101422.59;107993;1254;61891;-63
2023/01/22 05:00:50;;;;;;;64.50;27.60;;;;;;;8.86;100.00;101426.25;108041;1254;61221;-63
2023/01/22 05:03:17;;;;;;;56.20;24.50;;;;;;;8.78;100.00;101424.59;108042;1254;74903;-66
2023/01/22 05:05:43;;;;;;;59.10;25.30;;;;;;;8.85;100.00;101429.25;108053;1254;71628;-64
2023/01/22 05:08:11;;;;;;;53.20;24.30;;;;;;;8.74;100.00;101433.02;108107;1254;73885;-64
2023/01/22 05:10:38;;;;;;;56.00;26.10;;;;;;;8.92;100.00;101433.56;108094;1255;62382;-64
2023/01/22 05:13:07;;;;;;;54.00;22.90;;;;;;;8.95;100.00;101431.25;108037;1255;60499;-63
2023/01/22 05:15:35;;;;;;;53.70;24.40;;;;;;;8.91;100.00;101436.73;108034;1254;74858;-64
2023/01/22 05:18:16;;;;;;;63.60;27.00;;;;;;;9.24;100.00;101438.15;107987;1254;70469;-64
2023/01/22 05:20:48;;;;;;;57.40;25.70;;;;;;;9.35;100.00;101440.30;107906;1254;73334;-63
2023/01/22 05:23:17;;;;;;;55.80;24.70;;;;;;;9.33;100.00;101444.54;107977;1258;61991;-65
2023/01/22 05:25:48;;;;;;;61.80;25.80;;;;;;;9.58;100.00;101441.97;108004;1254;61378;-64
2023/01/22 05:28:15;;;;;;;64.70;26.00;;;;;;;9.48;100.00;101446.30;108025;1254;73915;-64
2023/01/22 05:31:09;;;;;;;60.90;26.30;;;;;;;9.26;100.00;101450.75;107951;1254;70580;-62
2023/01/22 05:34:09;;;;;;;61.20;24.50;;;;;;;9.32;100.00;101455.95;107702;1258;73226;-64
2023/01/22 05:36:36;;;;;;;54.40;24.80;;;;;;;9.20;100.00;101456.25;108069;1254;61422;-65
2023/01/22 05:39:09;;;;;;;55.80;23.70;;;;;;;8.85;100.00;101455.16;108013;1254;61052;-65
2023/01/22 05:41:36;;;;;;;56.80;23.70;;;;;;;8.75;100.00;101459.11;108050;1257;74991;-65
2023/01/22 05:44:05;;;;;;;62.80;23.90;;;;;;;8.93;100.00;101460.70;108041;1260;72089;-63
2023/01/22 05:46:32;;;;;;;54.10;23.20;;;;;;;8.73;100.00;101469.62;108076;1257;73609;-64
2023/01/22 05:49:17;;;;;;;52.70;20.70;;;;;;;8.86;100.00;101467.77;107971;1256;61328;-63
2023/01/22 05:51:46;;;;;;;57.80;23.10;;;;;;;8.81;100.00;101473.59;107976;1258;61372;-61
2023/01/22 05:54:13;;;;;;;55.10;22.30;;;;;;;8.72;100.00;101478.73;108018;1257;75675;-63
2023/01/22 05:56:42;;;;;;;51.80;21.40;;;;;;;8.70;100.00;101480.33;107982;1257;71474;-63
2023/01/22 05:59:10;;;;;;;50.70;21.50;;;;;;;8.79;100.00;101484.10;107975;1259;74228;-64
2023/01/22 06:01:37;;;;;;;55.80;22.70;;;;;;;8.61;100.00;101488.11;107866;1257;62396;-64
2023/01/22 06:04:04;;;;;;;59.60;23.60;;;;;;;8.79;100.00;101490.23;108061;1256;60303;-64
2023/01/22 06:06:35;;;;;;;49.30;20.00;;;;;;;8.97;100.00;101494.29;107947;1257;74166;-65
2023/01/22 06:09:02;;;;;;;59.10;23.40;;;;;;;8.77;100.00;101500.23;107955;1257;71353;-62
2023/01/22 06:11:32;;;;;;;59.00;22.20;;;;;;;8.62;100.00;101498.59;107999;1257;71534;-64
2023/01/22 06:13:59;;;;;;;45.60;20.10;;;;;;;8.56;100.00;101501.79;107950;1257;60534;-64
2023/01/22 06:16:25;;;;;;;54.50;22.80;;;;;;;8.59;100.00;101503.34;107857;1256;61532;-62
2023/01/22 06:19:03;;;;;;;61.90;24.10;;;;;;;8.74;100.00;101507.61;107937;1258;75142;-64
2023/01/22 06:21:36;;;;;;;51.30;21.20;;;;;;;8.80;100.00;101513.52;107976;1258;70374;-65
2023/01/22 06:24:03;;;;;;;55.80;22.30;;;;;;;8.83;100.00;101511.05;108024;1257;73287;-63
2023/01/22 06:26:31;;;;;;;45.00;20.30;;;;;;;8.68;100.00;101515.71;108035;1256;60536;-65
2023/01/22 06:28:58;;;;;;;57.70;24.10;;;;;;;8.54;100.00;101527.19;108100;1256;61214;-64
2023/01/22 06:31:25;;;;;;;49.10;21.10;;;;;;;8.38;100.00;101527.95;108059;1258;74892;-64
2023/01/22 06:33:52;;;;;;;60.10;24.80;;;;;;;8.38;100.00;101529.36;108093;1257;71325;-66
2023/01/22 06:36:19;;;;;;;60.00;24.40;;;;;;;8.29;100.00;101528.52;107935;1256;70889;-65
2023/01/22 06:38:45;;;;;;;60.50;23.90;;;;;;;8.49;100.00;101535.95;108059;1256;62257;-62
2023/01/22 06:41:15;;;;;;;59.10;22.90;;;;;;;8.51;100.00;101536.11;108040;1256;61059;-63
2023/01/22 06:43:42;;;;;;;52.30;21.60;;;;;;;8.63;100.00;101537.28;108012;1258;74690;-63
2023/01/22 06:46:09;;;;;;;54.00;23.10;;;;;;;8.57;100.00;101547.30;107924;1257;70210;-65
2023/01/22 06:49:02;;;;;;;55.70;22.60;;;;;;;8.50;100.00;101551.36;108020;1256;73670;-65
2023/01/22 06:51:29;;;;;;;55.60;23.70;;;;;;;8.47;100.00;101555.41;107968;1256;62267;-64
2023/01/22 06:53:56;;;;;;;55.10;23.70;;;;;;;8.53;100.00;101561.33;108076;1255;60328;-63
2023/01/22 06:56:23;;;;;;;56.60;23.70;;;;;;;8.41;100.00;101562.26;107949;1257;75081;-66
2023/01/22 06:58:50;;;;;;;73.00;26.60;;;;;;;8.62;100.00;101567.58;108064;1257;71325;-64
2023/01/22 07:01:16;;;;;;;53.60;21.30;;;;;;;8.57;100.00;101568.30;108000;1259;73719;-65
2023/01/22 07:03:44;;;;;;;56.40;23.20;;;;;;;8.60;100.00;101571.09;108047;1257;62154;-65
2023/01/22 07:06:12;;;;;;;58.50;23.70;;;;;;;8.60;100.00;101572.31;108088;1257;61014;-65
2023/01/22 07:08:39;;;;;;;58.00;23.20;;;;;;;8.62;100.00;101571.77;108082;1256;74672;-65
2023/01/22 07:11:06;;;;;;;57.60;23.70;;;;;;;8.74;100.00;101580.81;108045;1257;70898;-65
2023/01/22 07:13:35;;;;;;;67.70;27.20;;;;;;;8.61;100.00;101577.73;108237;1257;74129;-65
2023/01/22 07:16:03;;;;;;;62.80;25.20;;;;;;;8.75;100.00;101581.15;108004;1255;61122;-66
2023/01/22 07:18:29;;;;;;;67.20;27.00;;;;;;;8.75;100.00;101578.52;108084;1255;60889;-65
2023/01/22 07:21:05;;;;;;;63.00;25.90;;;;;;;8.70;100.00;101575.77;108020;1257;72974;-65
2023/01/22 07:23:31;;;;;;;65.80;26.20;;;;;;;8.63;100.00;101574.92;108003;1257;70503;-66
2023/01/22 07:25:58;;;;;;;57.10;24.90;;;;;;;8.77;100.00;101577.99;107970;1258;72963;-64
2023/01/22 07:28:25;;;;;;;66.90;27.20;;;;;;;8.77;100.00;101577.80;107972;1257;60481;-66
2023/01/22 07:30:51;;;;;;;67.70;25.80;;;;;;;8.58;100.00;101580.73;107968;1257;61549;-65
2023/01/22 07:33:18;;;;;;;67.20;25.50;;;;;;;8.59;100.00;101581.96;108008;1256;73726;-65
2023/01/22 07:35:52;;;;;;;70.40;26.30;;;;;;;8.68;100.00;101580.85;108036;1257;71403;-65
2023/01/22 07:38:19;;;;;;;66.00;27.00;;;;;;;8.69;100.00;101578.23;108032;1257;73778;-64
2023/01/22 07:40:46;;;;;;;80.10;28.90;;;;;;;8.93;100.00;101584.55;108021;1257;62269;-65
2023/01/22 07:43:13;;;;;;;71.10;30.20;;;;;;;9.02;100.00;101584.83;108028;1257;60373;-66
2023/01/22 07:45:42;;;;;;;77.30;29.30;;;;;;;8.75;100.00;101589.02;108025;1259;74651;-64
2023/01/22 07:48:12;;;;;;;71.40;28.70;;;;;;;8.74;100.00;101589.04;108096;1254;71312;-66
2023/01/22 07:50:39;;;;;;;63.60;27.10;;;;;;;8.88;100.00;101594.55;108081;1254;73904;-65
2023/01/22 07:53:06;;;;;;;66.30;25.80;;;;;;;9.24;100.00;101597.45;107985;1254;60396;-65
2023/01/22 07:55:33;;;;;;;52.40;22.00;;;;;;;9.29;100.00;101595.82;108103;1254;60119;-63
2023/01/22 07:58:02;;;;;;;68.00;26.90;;;;;;;9.23;100.00;101598.52;108085;1254;74799;-65
2023/01/22 08:00:29;;;;;;;57.70;25.70;;;;;;;9.16;100.00;101603.45;108121;1254;70653;-65
2023/01/22 08:02:58;;;;;;;62.30;25.60;;;;;;;8.62;100.00;101603.98;108189;1254;74246;-66
2023/01/22 08:05:25;;;;;;;59.20;23.80;;;;;;;8.85;100.00;101605.26;108078;1256;61544;-65
2023/01/22 08:07:52;;;;;;;63.20;25.20;;;;;;;8.94;100.00;101605.71;107948;1254;61213;-66
2023/01/22 08:10:19;;;;;;;59.60;23.70;;;;;;;9.06;100.00;101603.54;108080;1254;74023;-66
2023/01/22 08:12:49;;;;;;;50.90;22.60;;;;;;;8.86;100.00;101605.27;108050;1254;69658;-64
2023/01/22 08:15:16;;;;;;;58.80;25.00;;;;;;;8.83;100.00;101603.87;108024;1254;73672;-64
2023/01/22 08:17:46;;;;;;;58.50;24.60;;;;;;;8.82;100.00;101607.20;107761;1256;62376;-64
2023/01/22 08:20:15;;;;;;;54.30;24.50;;;;;;;8.96;100.00;101610.45;107776;1256;61589;-66
2023/01/22 08:22:42;;;;;;;56.00;23.80;;;;;;;8.98;100.00;101614.98;107993;1256;74933;-63
2023/01/22 08:25:09;;;;;;;53.00;23.80;;;;;;;9.20;100.00;101614.29;108010;1259;70219;-65
2023/01/22 08:27:37;;;;;;;49.40;22.40;;;;;;;9.34;100.00;101616.46;107934;1257;73886;-66
2023/01/22 08:30:04;;;;;;;57.50;24.00;;;;;;;9.21;100.00;101620.60;107954;1256;62346;-66
2023/01/22 08:32:34;;;;;;;58.40;25.70;;;;;;;9.14;100.00;101624.34;108013;1255;61167;-66
2023/01/22 08:35:01;;;;;;;52.30;21.20;;;;;;;9.07;100.00;101620.88;107804;1256;73956;-64
2023/01/22 08:37:28;;;;;;;57.80;23.50;;;;;;;8.73;100.00;101621.09;107980;1256;71035;-64
2023/01/22 08:39:55;;;;;;;46.80;20.40;;;;;;;9.15;100.00;101620.48;108031;1256;73652;-64
2023/01/22 08:42:21;;;;;;;54.90;22.80;;;;;;;9.28;100.00;101620.73;107991;1256;62266;-63
2023/01/22 08:44:48;;;;;;;49.60;22.30;;;;;;;9.24;100.00;101620.92;107990;1256;60421;-65
2023/01/22 08:47:15;;;;;;;47.00;20.80;;;;;;;9.20;100.00;101622.71;108014;1256;73060;-65
2023/01/22 08:49:42;;;;;;;54.50;23.30;;;;;;;9.35;100.00;101622.25;107994;1257;70632;-66
2023/01/22 08:52:09;;;;;;;57.20;24.30;;;;;;;9.12;100.00;101621.20;107966;1255;73535;-65
2023/01/22 08:54:40;;;;;;;50.30;21.90;;;;;;;8.91;100.00;101624.30;107951;1257;61991;-66
2023/01/22 08:57:06;;;;;;;53.10;23.10;;;;;;;8.90;100.00;101623.27;107965;1257;60773;-65
2023/01/22 08:59:33;;;;;;;48.70;22.70;;;;;;;9.09;100.00;101630.33;107977;1259;74743;-65
2023/01/22 09:02:00;;;;;;;48.60;21.70;;;;;;;8.88;100.00;101625.38;108026;1256;70966;-65
2023/01/22 09:04:27;;;;;;;55.20;24.90;;;;;;;8.77;100.00;101624.05;108001;1256;71624;-62
2023/01/22 09:06:54;;;;;;;53.20;23.30;;;;;;;9.07;100.00;101626.83;107841;1256;62394;-64
2023/01/22 09:09:21;;;;;;;52.30;22.20;;;;;;;9.19;100.00;101623.77;108032;1256;60576;-67
2023/01/22 09:11:48;;;;;;;51.20;22.40;;;;;;;9.04;100.00;101627.73;108001;1256;75147;-66
2023/01/22 09:14:14;;;;;;;50.60;22.00;;;;;;;8.96;100.00;101626.91;107947;1256;71558;-64
2023/01/22 09:16:41;;;;;;;47.60;21.10;;;;;;;8.96;100.00;101625.33;107977;1257;73943;-64
2023/01/22 09:19:09;;;;;;;44.70;22.10;;;;;;;9.10;100.00;101626.99;107942;1256;61333;-66
2023/01/22 09:21:36;;;;;;;49.50;21.30;;;;;;;9.10;100.00;101627.16;107996;1255;60509;-66
2023/01/22 09:24:04;;;;;;;42.60;19.60;;;;;;;9.21;100.00;101630.61;107996;1256;74639;-66
2023/01/22 09:26:31;;;;;;;47.20;20.30;;;;;;;8.94;100.00;101629.02;108040;1256;69432;-66
2023/01/22 09:28:59;;;;;;;48.70;21.40;;;;;;;9.21;100.00;101630.94;107976;1256;73988;-67
2023/01/22 09:31:26;;;;;;;47.30;20.80;;;;;;;9.06;100.00;101635.25;107948;1256;61506;-65
2023/01/22 09:33:54;;;;;;;48.80;23.70;;;;;;;8.50;100.00;101638.52;108071;1256;60374;-64
2023/01/22 09:36:21;;;;;;;53.70;22.30;;;;;;;8.45;100.00;101638.02;108034;1256;74030;-64
2023/01/22 09:38:47;;;;;;;43.90;21.60;;;;;;;8.58;100.00;101640.95;108049;1256;71688;-65
2023/01/22 09:41:35;;;;;;;44.80;20.40;;;;;;;8.93;100.00;101644.62;108054;1256;73815;-65
2023/01/22 09:44:13;;;;;;;41.60;19.70;;;;;;;9.13;100.00;101647.13;107714;1256;398634;-66
2023/01/22 12:09:07;;;;;;;33.40;18.30;;;;;;;5.79;100.00;101690.86;105492;1282;613073;-63
2023/01/22 12:11:56;;;;;;;42.60;20.20;;;;;;;7.20;100.00;101686.58;107119;1264;202439;-64
2023/01/22 12:14:34;;;;;;;39.70;19.30;;;;;;;7.28;100.00;101692.70;107379;1265;59800;-65
2023/01/22 12:17:11;;;;;;;42.50;20.20;;;;;;;6.97;100.00;101698.92;107329;1265;73483;-65
2023/01/22 12:19:39;;;;;;;33.00;17.20;;;;;;;6.93;100.00;101696.47;107691;1259;71348;-65
2023/01/22 12:22:23;;;;;;;38.00;19.10;;;;;;;7.16;100.00;101695.31;107920;1256;72410;-63
2023/01/22 12:25:01;;;;;;;39.10;17.50;;;;;;;7.39;100.00;101698.14;107886;1256;61324;-62
2023/01/22 12:27:40;;;;;;;37.00;17.60;;;;;;;7.63;100.00;101696.76;107903;1256;61127;-65
2023/01/22 12:30:18;;;;;;;39.60;18.50;;;;;;;7.67;100.00;101695.53;107943;1256;72439;-65
2023/01/22 12:32:50;;;;;;;35.50;18.20;;;;;;;7.60;100.00;101700.95;107934;1256;71646;-65
2023/01/22 12:35:18;;;;;;;36.90;18.20;;;;;;;7.62;100.00;101695.88;107895;1256;71882;-65
2023/01/22 12:37:45;;;;;;;32.80;17.90;;;;;;;7.63;100.00;101704.44;107910;1256;59710;-64
2023/01/22 12:40:30;;;;;;;32.60;17.60;;;;;;;7.66;100.00;101700.77;107861;1256;61560;-64
2023/01/22 12:43:02;;;;;;;31.40;16.00;;;;;;;7.54;100.00;101703.74;107810;1256;74055;-63
2023/01/22 12:45:53;;;;;;;33.60;17.20;;;;;;;7.60;100.00;101710.04;107938;1256;71338;-62
2023/01/22 12:48:41;;;;;;;32.30;15.90;;;;;;;7.64;100.00;101710.05;107908;1256;73434;-63
2023/01/22 12:51:41;;;;;;;32.80;15.90;;;;;;;7.60;100.00;101710.92;108038;1256;60227;-64
2023/01/22 12:54:35;;;;;;;30.40;15.40;;;;;;;7.61;100.00;101711.61;108012;1256;61396;-63
2023/01/22 12:57:15;;;;;;;;;;;;;;;7.77;100.00;101709.88;108008;1258;72678;-65
2023/01/22 12:59:54;;;;;;;30.60;15.80;;;;;;;7.77;100.00;101710.40;108010;1254;69016;-63
2023/01/22 13:02:28;;;;;;;35.00;16.40;;;;;;;7.72;100.00;101715.64;108012;1254;73640;-65
2023/01/22 13:04:55;;;;;;;34.70;18.00;;;;;;;7.90;100.00;101712.48;108089;1254;62422;-66
2023/01/22 13:07:28;;;;;;;39.30;18.50;;;;;;;7.94;100.00;101714.59;108021;1254;61417;-65
2023/01/22 13:10:04;;;;;;;30.30;15.70;;;;;;;8.04;100.00;101720.88;108015;1256;72790;-65
2023/01/22 13:12:44;;;;;;;29.80;15.80;;;;;;;7.81;100.00;101720.88;108025;1254;71534;-65
2023/01/22 13:15:18;;;;;;;31.50;15.60;;;;;;;7.95;100.00;101723.33;108039;1254;72798;-64
2023/01/22 13:17:59;;;;;;;35.50;17.70;;;;;;;7.89;100.00;101725.09;108064;1254;59654;-64
2023/01/22 13:21:01;;;;;;;30.10;15.70;;;;;;;8.00;100.00;101728.92;107950;1259;59596;-64
2023/01/22 13:23:36;;;;;;;29.70;14.70;;;;;;;8.12;100.00;101728.55;108060;1258;74470;-66
2023/01/22 13:26:03;;;;;;;33.00;17.50;;;;;;;8.23;100.00;101731.86;108128;1254;71041;-65
2023/01/22 13:28:30;;;;;;;30.40;16.40;;;;;;;8.13;100.00;101732.05;108054;1254;72288;-65
2023/01/22 13:31:03;;;;;;;32.30;16.10;;;;;;;7.94;100.00;101730.15;108050;1254;61367;-66
2023/01/22 13:33:30;;;;;;;29.90;15.20;;;;;;;8.04;100.00;101735.73;108056;1254;61520;-64
2023/01/22 13:35:57;;;;;;;36.60;17.70;;;;;;;8.15;100.00;101739.05;108055;1254;73963;-65
2023/01/22 13:38:25;;;;;;;31.90;16.20;;;;;;;7.95;100.00;101741.19;108121;1254;71307;-65
2023/01/22 13:41:34;;;;;;;35.50;16.40;;;;;;;7.74;100.00;101750.42;108171;1253;72964;-65
2023/01/22 13:44:04;;;;;;;33.20;18.40;;;;;;;7.94;100.00;101749.55;108019;1254;60667;-65